sensor_id;sensor_type;location;lat;lon;timestamp;P1;P2;P0
42002;PMS7003;27693;50.506;30.832;2024-03-22T00:00:18;65.50;50.80;33.30
42002;PMS7003;27693;50.506;30.832;2024-03-22T00:01:20;70.00;53.30;35.90
42002;PMS7003;27693;50.506;30.832;2024-03-22T00:02:22;50.00;39.50;26.70
42002;PMS7003;27693;50.506;30.832;2024-03-22T00:03:24;55.70;43.00;28.80
42002;PMS7003;27693;50.506;30.832;2024-03-22T00:04:27;54.70;42.90;29.50
42002;PMS7003;27693;50.506;30.832;2024-03-22T00:05:29;54.50;43.50;30.00
42002;PMS7003;27693;50.506;30.832;2024-03-22T00:06:31;50.70;40.20;27.30
42002;PMS7003;27693;50.506;30.832;2024-03-22T00:07:33;51.44;39.78;27.78
42002;PMS7003;27693;50.506;30.832;2024-03-22T00:08:36;54.90;42.10;28.70
42002;PMS7003;27693;50.506;30.832;2024-03-22T00:09:40;44.30;36.00;20.80
42002;PMS7003;27693;50.506;30.832;2024-03-22T00:10:42;54.80;43.10;28.70
42002;PMS7003;27693;50.506;30.832;2024-03-22T00:11:44;53.50;43.20;28.70
42002;PMS7003;27693;50.506;30.832;2024-03-22T00:12:47;52.22;41.56;28.56
42002;PMS7003;27693;50.506;30.832;2024-03-22T00:13:51;53.20;42.30;27.80
42002;PMS7003;27693;50.506;30.832;2024-03-22T00:14:53;52.50;41.60;27.90
42002;PMS7003;27693;50.506;30.832;2024-03-22T00:15:56;54.50;42.50;27.90
42002;PMS7003;27693;50.506;30.832;2024-03-22T00:16:58;48.80;38.70;26.50
42002;PMS7003;27693;50.506;30.832;2024-03-22T00:18:00;46.10;36.80;24.60
42002;PMS7003;27693;50.506;30.832;2024-03-22T00:19:03;48.50;37.80;26.10
42002;PMS7003;27693;50.506;30.832;2024-03-22T00:20:08;50.80;39.10;26.90
42002;PMS7003;27693;50.506;30.832;2024-03-22T00:21:11;50.00;39.20;26.00
42002;PMS7003;27693;50.506;30.832;2024-03-22T00:22:16;48.10;37.60;26.70
42002;PMS7003;27693;50.506;30.832;2024-03-22T00:23:18;46.70;37.40;26.50
42002;PMS7003;27693;50.506;30.832;2024-03-22T00:24:20;44.33;34.78;23.33
42002;PMS7003;27693;50.506;30.832;2024-03-22T00:25:24;45.60;36.80;24.20
42002;PMS7003;27693;50.506;30.832;2024-03-22T00:26:26;45.40;36.30;24.90
42002;PMS7003;27693;50.506;30.832;2024-03-22T00:27:29;40.20;34.10;24.50
42002;PMS7003;27693;50.506;30.832;2024-03-22T00:28:31;41.56;33.78;22.89
42002;PMS7003;27693;50.506;30.832;2024-03-22T00:29:33;38.00;32.70;22.50
42002;PMS7003;27693;50.506;30.832;2024-03-22T00:30:35;38.50;29.60;21.20
42002;PMS7003;27693;50.506;30.832;2024-03-22T00:31:39;40.50;34.60;23.20
42002;PMS7003;27693;50.506;30.832;2024-03-22T00:32:42;37.30;32.50;22.60
42002;PMS7003;27693;50.506;30.832;2024-03-22T00:33:46;38.90;31.80;21.80
42002;PMS7003;27693;50.506;30.832;2024-03-22T00:34:48;34.50;30.60;21.20
42002;PMS7003;27693;50.506;30.832;2024-03-22T00:35:50;39.80;30.80;21.60
42002;PMS7003;27693;50.506;30.832;2024-03-22T00:36:52;38.70;32.60;22.50
42002;PMS7003;27693;50.506;30.832;2024-03-22T00:37:55;34.90;29.10;20.20
42002;PMS7003;27693;50.506;30.832;2024-03-22T00:38:57;30.70;29.10;21.10
42002;PMS7003;27693;50.506;30.832;2024-03-22T00:39:59;30.70;28.40;21.10
42002;PMS7003;27693;50.506;30.832;2024-03-22T00:41:02;28.30;23.50;15.50
42002;PMS7003;27693;50.506;30.832;2024-03-22T00:42:04;33.30;28.20;21.10
42002;PMS7003;27693;50.506;30.832;2024-03-22T00:43:06;34.00;28.50;20.30
42002;PMS7003;27693;50.506;30.832;2024-03-22T00:44:09;31.00;24.50;18.20
42002;PMS7003;27693;50.506;30.832;2024-03-22T00:45:11;23.90;21.60;15.80
42002;PMS7003;27693;50.506;30.832;2024-03-22T00:46:13;32.20;29.70;20.30
42002;PMS7003;27693;50.506;30.832;2024-03-22T00:47:15;28.00;26.50;19.40
42002;PMS7003;27693;50.506;30.832;2024-03-22T00:48:17;27.60;25.90;18.00
42002;PMS7003;27693;50.506;30.832;2024-03-22T00:49:20;28.60;26.70;18.50
42002;PMS7003;27693;50.506;30.832;2024-03-22T00:50:22;27.30;25.40;18.90
42002;PMS7003;27693;50.506;30.832;2024-03-22T00:51:25;28.80;26.60;19.80
42002;PMS7003;27693;50.506;30.832;2024-03-22T00:52:28;28.91;25.09;17.64
42002;PMS7003;27693;50.506;30.832;2024-03-22T00:53:30;29.80;28.50;20.80
42002;PMS7003;27693;50.506;30.832;2024-03-22T00:54:32;27.20;24.80;17.70
42002;PMS7003;27693;50.506;30.832;2024-03-22T00:55:36;27.80;23.60;17.90
42002;PMS7003;27693;50.506;30.832;2024-03-22T00:56:38;28.80;26.10;19.30
42002;PMS7003;27693;50.506;30.832;2024-03-22T00:57:41;23.40;22.10;16.80
42002;PMS7003;27693;50.506;30.832;2024-03-22T00:58:43;28.00;27.00;19.70
42002;PMS7003;27693;50.506;30.832;2024-03-22T00:59:45;32.10;25.20;18.10
42002;PMS7003;27693;50.506;30.832;2024-03-22T01:00:49;28.60;25.60;18.30
42002;PMS7003;27693;50.506;30.832;2024-03-22T01:01:51;33.60;28.50;19.70
42002;PMS7003;27693;50.506;30.832;2024-03-22T01:02:53;28.20;24.80;17.50
42002;PMS7003;27693;50.506;30.832;2024-03-22T01:03:55;31.50;26.60;19.60
42002;PMS7003;27693;50.506;30.832;2024-03-22T01:04:57;30.78;25.67;18.22
42002;PMS7003;27693;50.506;30.832;2024-03-22T01:06:00;31.20;27.70;20.00
42002;PMS7003;27693;50.506;30.832;2024-03-22T01:07:02;30.90;26.40;19.20
42002;PMS7003;27693;50.506;30.832;2024-03-22T01:08:05;29.60;25.60;18.70
42002;PMS7003;27693;50.506;30.832;2024-03-22T01:09:08;23.45;22.09;16.27
42002;PMS7003;27693;50.506;30.832;2024-03-22T01:10:10;28.60;24.40;17.60
42002;PMS7003;27693;50.506;30.832;2024-03-22T01:11:13;25.90;22.80;17.80
42002;PMS7003;27693;50.506;30.832;2024-03-22T01:12:16;25.30;22.50;17.80
42002;PMS7003;27693;50.506;30.832;2024-03-22T01:13:18;28.60;22.90;17.10
42002;PMS7003;27693;50.506;30.832;2024-03-22T01:14:20;60.70;45.40;29.20
42002;PMS7003;27693;50.506;30.832;2024-03-22T01:15:22;73.33;52.33;33.78
42002;PMS7003;27693;50.506;30.832;2024-03-22T01:16:24;70.33;52.00;34.00
42002;PMS7003;27693;50.506;30.832;2024-03-22T01:17:27;68.60;51.00;31.50
42002;PMS7003;27693;50.506;30.832;2024-03-22T01:18:29;76.80;59.00;37.90
42002;PMS7003;27693;50.506;30.832;2024-03-22T01:19:32;76.20;57.90;35.80
42002;PMS7003;27693;50.506;30.832;2024-03-22T01:20:35;78.80;64.40;39.50
42002;PMS7003;27693;50.506;30.832;2024-03-22T01:21:37;78.10;62.80;39.90
42002;PMS7003;27693;50.506;30.832;2024-03-22T01:22:39;81.70;65.30;39.70
42002;PMS7003;27693;50.506;30.832;2024-03-22T01:23:42;79.20;62.50;37.90
42002;PMS7003;27693;50.506;30.832;2024-03-22T01:24:44;70.89;54.56;35.89
42002;PMS7003;27693;50.506;30.832;2024-03-22T01:25:46;79.00;62.90;40.50
42002;PMS7003;27693;50.506;30.832;2024-03-22T01:26:49;79.50;64.80;40.60
42002;PMS7003;27693;50.506;30.832;2024-03-22T01:27:51;81.90;66.50;43.50
42002;PMS7003;27693;50.506;30.832;2024-03-22T01:28:53;79.20;66.40;43.20
42002;PMS7003;27693;50.506;30.832;2024-03-22T01:29:57;79.60;65.50;41.90
42002;PMS7003;27693;50.506;30.832;2024-03-22T01:31:00;73.60;58.30;35.10
42002;PMS7003;27693;50.506;30.832;2024-03-22T01:32:02;85.70;68.80;42.60
42002;PMS7003;27693;50.506;30.832;2024-03-22T01:33:04;82.60;68.20;43.20
42002;PMS7003;27693;50.506;30.832;2024-03-22T01:34:08;86.90;71.30;44.40
42002;PMS7003;27693;50.506;30.832;2024-03-22T01:35:10;84.30;73.10;44.50
42002;PMS7003;27693;50.506;30.832;2024-03-22T01:36:12;81.20;66.50;42.10
42002;PMS7003;27693;50.506;30.832;2024-03-22T01:37:14;82.90;68.60;41.50
42002;PMS7003;27693;50.506;30.832;2024-03-22T01:38:16;86.22;71.33;45.56
42002;PMS7003;27693;50.506;30.832;2024-03-22T01:39:19;90.67;73.44;44.33
42002;PMS7003;27693;50.506;30.832;2024-03-22T01:40:23;92.20;72.90;45.40
42002;PMS7003;27693;50.506;30.832;2024-03-22T01:41:27;86.80;69.90;42.80
42002;PMS7003;27693;50.506;30.832;2024-03-22T01:42:30;83.90;73.90;44.50
42002;PMS7003;27693;50.506;30.832;2024-03-22T01:43:32;84.00;69.50;44.00
42002;PMS7003;27693;50.506;30.832;2024-03-22T01:44:35;81.70;66.50;43.10
42002;PMS7003;27693;50.506;30.832;2024-03-22T01:45:37;79.40;62.70;39.80
42002;PMS7003;27693;50.506;30.832;2024-03-22T01:46:40;85.50;71.00;46.80
42002;PMS7003;27693;50.506;30.832;2024-03-22T01:47:43;79.60;59.90;42.90
42002;PMS7003;27693;50.506;30.832;2024-03-22T01:48:46;82.09;69.73;45.00
42002;PMS7003;27693;50.506;30.832;2024-03-22T01:49:50;68.70;50.30;25.90
42002;PMS7003;27693;50.506;30.832;2024-03-22T01:50:56;83.10;70.80;42.50
42002;PMS7003;27693;50.506;30.832;2024-03-22T01:51:58;88.70;71.20;43.50
42002;PMS7003;27693;50.506;30.832;2024-03-22T01:53:00;84.56;68.56;41.67
42002;PMS7003;27693;50.506;30.832;2024-03-22T01:54:03;84.44;68.89;43.11
42002;PMS7003;27693;50.506;30.832;2024-03-22T01:55:07;82.40;69.60;43.60
42002;PMS7003;27693;50.506;30.832;2024-03-22T01:56:09;83.00;65.45;40.00
42002;PMS7003;27693;50.506;30.832;2024-03-22T01:57:12;81.00;68.80;43.90
42002;PMS7003;27693;50.506;30.832;2024-03-22T01:58:15;87.20;69.30;44.10
42002;PMS7003;27693;50.506;30.832;2024-03-22T01:59:18;84.00;69.27;43.82
42002;PMS7003;27693;50.506;30.832;2024-03-22T02:00:22;86.00;69.80;42.70
42002;PMS7003;27693;50.506;30.832;2024-03-22T02:01:24;83.20;72.80;43.60
42002;PMS7003;27693;50.506;30.832;2024-03-22T02:02:27;80.30;66.10;38.90
42002;PMS7003;27693;50.506;30.832;2024-03-22T02:03:29;90.11;68.89;41.67
42002;PMS7003;27693;50.506;30.832;2024-03-22T02:04:31;80.33;62.33;37.44
42002;PMS7003;27693;50.506;30.832;2024-03-22T02:05:33;83.56;68.00;41.22
42002;PMS7003;27693;50.506;30.832;2024-03-22T02:06:36;81.60;69.20;42.50
42002;PMS7003;27693;50.506;30.832;2024-03-22T02:07:38;83.90;66.50;40.90
42002;PMS7003;27693;50.506;30.832;2024-03-22T02:08:40;93.60;76.00;46.40
42002;PMS7003;27693;50.506;30.832;2024-03-22T02:09:43;91.10;71.20;44.00
42002;PMS7003;27693;50.506;30.832;2024-03-22T02:10:46;83.64;64.00;40.36
42002;PMS7003;27693;50.506;30.832;2024-03-22T02:11:48;82.00;69.10;43.30
42002;PMS7003;27693;50.506;30.832;2024-03-22T02:12:51;80.10;60.30;36.20
42002;PMS7003;27693;50.506;30.832;2024-03-22T02:13:53;89.20;70.00;43.30
42002;PMS7003;27693;50.506;30.832;2024-03-22T02:14:58;85.30;70.60;42.40
42002;PMS7003;27693;50.506;30.832;2024-03-22T02:16:04;83.80;69.30;40.40
42002;PMS7003;27693;50.506;30.832;2024-03-22T02:17:07;89.40;69.30;44.30
42002;PMS7003;27693;50.506;30.832;2024-03-22T02:18:10;87.10;71.90;42.90
42002;PMS7003;27693;50.506;30.832;2024-03-22T02:19:12;78.80;63.00;36.30
42002;PMS7003;27693;50.506;30.832;2024-03-22T02:20:14;81.30;68.90;43.30
42002;PMS7003;27693;50.506;30.832;2024-03-22T02:21:17;81.70;66.40;41.30
42002;PMS7003;27693;50.506;30.832;2024-03-22T02:22:19;87.33;71.00;43.67
42002;PMS7003;27693;50.506;30.832;2024-03-22T02:23:42;87.00;69.20;43.20
42002;PMS7003;27693;50.506;30.832;2024-03-22T02:24:30;86.70;72.40;46.10
42002;PMS7003;27693;50.506;30.832;2024-03-22T02:25:34;85.20;67.40;41.90
42002;PMS7003;27693;50.506;30.832;2024-03-22T02:26:36;82.80;65.80;40.50
42002;PMS7003;27693;50.506;30.832;2024-03-22T02:27:38;77.11;59.22;39.33
42002;PMS7003;27693;50.506;30.832;2024-03-22T02:28:41;86.20;69.40;43.40
42002;PMS7003;27693;50.506;30.832;2024-03-22T02:29:43;94.89;73.78;46.33
42002;PMS7003;27693;50.506;30.832;2024-03-22T02:30:45;78.50;58.50;36.80
42002;PMS7003;27693;50.506;30.832;2024-03-22T02:31:47;80.10;66.40;42.50
42002;PMS7003;27693;50.506;30.832;2024-03-22T02:32:49;81.89;66.78;40.89
42002;PMS7003;27693;50.506;30.832;2024-03-22T02:33:51;81.11;67.56;40.78
42002;PMS7003;27693;50.506;30.832;2024-03-22T02:34:53;84.20;67.20;42.80
42002;PMS7003;27693;50.506;30.832;2024-03-22T02:35:58;82.10;66.40;38.50
42002;PMS7003;27693;50.506;30.832;2024-03-22T02:37:00;81.30;64.90;40.80
42002;PMS7003;27693;50.506;30.832;2024-03-22T02:38:02;84.60;70.70;43.70
42002;PMS7003;27693;50.506;30.832;2024-03-22T02:39:05;79.50;62.70;36.00
42002;PMS7003;27693;50.506;30.832;2024-03-22T02:40:08;79.60;63.70;40.50
42002;PMS7003;27693;50.506;30.832;2024-03-22T02:41:10;76.20;56.40;36.20
42002;PMS7003;27693;50.506;30.832;2024-03-22T02:42:13;88.60;69.70;45.00
42002;PMS7003;27693;50.506;30.832;2024-03-22T02:43:15;82.60;68.00;42.90
42002;PMS7003;27693;50.506;30.832;2024-03-22T02:44:19;81.60;64.70;40.40
42002;PMS7003;27693;50.506;30.832;2024-03-22T02:45:22;72.30;54.00;35.00
42002;PMS7003;27693;50.506;30.832;2024-03-22T02:46:25;63.91;49.18;31.73
42002;PMS7003;27693;50.506;30.832;2024-03-22T02:47:27;84.00;69.60;42.60
42002;PMS7003;27693;50.506;30.832;2024-03-22T02:48:29;79.00;61.20;37.50
42002;PMS7003;27693;50.506;30.832;2024-03-22T02:49:33;79.50;66.40;42.60
42002;PMS7003;27693;50.506;30.832;2024-03-22T02:50:36;78.40;60.50;37.30
42002;PMS7003;27693;50.506;30.832;2024-03-22T02:51:39;78.82;60.09;38.45
42002;PMS7003;27693;50.506;30.832;2024-03-22T02:52:41;73.70;56.50;36.00
42002;PMS7003;27693;50.506;30.832;2024-03-22T02:53:43;76.10;58.70;37.60
42002;PMS7003;27693;50.506;30.832;2024-03-22T02:54:45;69.11;47.89;27.33
42002;PMS7003;27693;50.506;30.832;2024-03-22T02:55:47;78.44;60.56;37.22
42002;PMS7003;27693;50.506;30.832;2024-03-22T02:56:50;76.60;60.30;36.90
42002;PMS7003;27693;50.506;30.832;2024-03-22T02:57:52;72.70;55.10;35.70
42002;PMS7003;27693;50.506;30.832;2024-03-22T02:58:55;74.80;57.20;36.40
42002;PMS7003;27693;50.506;30.832;2024-03-22T02:59:59;80.60;63.90;40.50
42002;PMS7003;27693;50.506;30.832;2024-03-22T03:01:05;80.30;65.50;39.50
42002;PMS7003;27693;50.506;30.832;2024-03-22T03:02:07;80.90;65.40;42.00
42002;PMS7003;27693;50.506;30.832;2024-03-22T03:03:09;69.11;52.00;32.67
42002;PMS7003;27693;50.506;30.832;2024-03-22T03:04:11;83.44;67.56;41.44
42002;PMS7003;27693;50.506;30.832;2024-03-22T03:05:14;90.80;75.50;48.10
42002;PMS7003;27693;50.506;30.832;2024-03-22T03:06:16;87.80;77.70;48.50
42002;PMS7003;27693;50.506;30.832;2024-03-22T03:07:21;84.00;68.20;43.20
42002;PMS7003;27693;50.506;30.832;2024-03-22T03:08:23;78.80;63.00;39.60
42002;PMS7003;27693;50.506;30.832;2024-03-22T03:09:26;79.45;64.55;40.64
42002;PMS7003;27693;50.506;30.832;2024-03-22T03:10:30;79.30;63.60;39.50
42002;PMS7003;27693;50.506;30.832;2024-03-22T03:11:32;71.40;53.70;34.20
42002;PMS7003;27693;50.506;30.832;2024-03-22T03:12:35;79.10;62.60;39.50
42002;PMS7003;27693;50.506;30.832;2024-03-22T03:13:37;90.30;72.40;45.70
42002;PMS7003;27693;50.506;30.832;2024-03-22T03:14:42;79.20;63.60;39.70
42002;PMS7003;27693;50.506;30.832;2024-03-22T03:15:44;82.89;64.33;39.67
42002;PMS7003;27693;50.506;30.832;2024-03-22T03:16:46;76.50;57.90;34.70
42002;PMS7003;27693;50.506;30.832;2024-03-22T03:17:48;83.56;68.67;43.67
42002;PMS7003;27693;50.506;30.832;2024-03-22T03:18:51;82.90;72.40;44.90
42002;PMS7003;27693;50.506;30.832;2024-03-22T03:19:56;82.70;65.50;43.30
42002;PMS7003;27693;50.506;30.832;2024-03-22T03:20:58;82.20;68.20;43.00
42002;PMS7003;27693;50.506;30.832;2024-03-22T03:22:01;73.20;55.90;41.20
42002;PMS7003;27693;50.506;30.832;2024-03-22T03:23:03;84.60;70.70;43.90
42002;PMS7003;27693;50.506;30.832;2024-03-22T03:24:05;80.20;62.10;40.10
42002;PMS7003;27693;50.506;30.832;2024-03-22T03:25:08;83.60;70.10;44.80
42002;PMS7003;27693;50.506;30.832;2024-03-22T03:26:11;81.80;70.10;43.70
42002;PMS7003;27693;50.506;30.832;2024-03-22T03:27:14;89.27;74.27;46.64
42002;PMS7003;27693;50.506;30.832;2024-03-22T03:28:17;77.10;61.70;38.90
42002;PMS7003;27693;50.506;30.832;2024-03-22T03:29:20;82.70;69.60;44.60
42002;PMS7003;27693;50.506;30.832;2024-03-22T03:30:22;83.00;67.20;41.60
42002;PMS7003;27693;50.506;30.832;2024-03-22T03:31:24;89.40;71.80;43.80
42002;PMS7003;27693;50.506;30.832;2024-03-22T03:32:27;86.11;71.11;43.89
42002;PMS7003;27693;50.506;30.832;2024-03-22T03:33:30;85.18;71.27;45.55
42002;PMS7003;27693;50.506;30.832;2024-03-22T03:34:32;80.70;65.70;43.10
42002;PMS7003;27693;50.506;30.832;2024-03-22T03:35:35;83.80;66.60;41.30
42002;PMS7003;27693;50.506;30.832;2024-03-22T03:36:37;81.00;66.44;41.78
42002;PMS7003;27693;50.506;30.832;2024-03-22T03:37:39;84.67;68.89;45.11
42002;PMS7003;27693;50.506;30.832;2024-03-22T03:38:41;82.20;67.50;42.20
42002;PMS7003;27693;50.506;30.832;2024-03-22T03:39:43;82.56;65.11;42.89
42002;PMS7003;27693;50.506;30.832;2024-03-22T03:40:46;82.00;67.20;41.00
42002;PMS7003;27693;50.506;30.832;2024-03-22T03:41:48;84.78;65.44;41.78
42002;PMS7003;27693;50.506;30.832;2024-03-22T03:42:50;82.67;68.00;45.67
42002;PMS7003;27693;50.506;30.832;2024-03-22T03:43:53;79.00;69.30;45.30
42002;PMS7003;27693;50.506;30.832;2024-03-22T03:44:55;83.10;67.50;42.80
42002;PMS7003;27693;50.506;30.832;2024-03-22T03:45:58;77.80;61.40;37.80
42002;PMS7003;27693;50.506;30.832;2024-03-22T03:47:01;82.10;68.20;44.40
42002;PMS7003;27693;50.506;30.832;2024-03-22T03:48:04;83.20;69.50;44.80
42002;PMS7003;27693;50.506;30.832;2024-03-22T03:49:07;80.82;64.82;43.55
42002;PMS7003;27693;50.506;30.832;2024-03-22T03:50:10;84.10;69.50;45.00
42002;PMS7003;27693;50.506;30.832;2024-03-22T03:51:12;84.70;71.40;44.80
42002;PMS7003;27693;50.506;30.832;2024-03-22T03:52:14;83.70;73.10;47.60
42002;PMS7003;27693;50.506;30.832;2024-03-22T03:53:16;69.33;53.67;36.22
42002;PMS7003;27693;50.506;30.832;2024-03-22T03:54:18;61.20;47.70;31.30
42002;PMS7003;27693;50.506;30.832;2024-03-22T03:55:23;78.90;64.20;40.20
42002;PMS7003;27693;50.506;30.832;2024-03-22T03:56:25;86.90;74.00;43.80
42002;PMS7003;27693;50.506;30.832;2024-03-22T03:57:27;76.40;59.60;38.50
42002;PMS7003;27693;50.506;30.832;2024-03-22T03:58:29;75.67;56.78;37.11
42002;PMS7003;27693;50.506;30.832;2024-03-22T03:59:31;68.78;51.78;35.00
42002;PMS7003;27693;50.506;30.832;2024-03-22T04:00:33;63.89;49.00;33.67
42002;PMS7003;27693;50.506;30.832;2024-03-22T04:01:37;66.30;51.10;34.00
42002;PMS7003;27693;50.506;30.832;2024-03-22T04:02:39;60.40;46.50;30.20
42002;PMS7003;27693;50.506;30.832;2024-03-22T04:03:42;57.27;45.64;31.18
42002;PMS7003;27693;50.506;30.832;2024-03-22T04:04:44;54.90;43.90;30.70
42002;PMS7003;27693;50.506;30.832;2024-03-22T04:05:55;61.30;45.40;29.90
42002;PMS7003;27693;50.506;30.832;2024-03-22T04:07:00;67.90;51.30;34.60
42002;PMS7003;27693;50.506;30.832;2024-03-22T04:08:03;68.50;51.50;34.00
42002;PMS7003;27693;50.506;30.832;2024-03-22T04:09:05;66.90;52.40;34.40
42002;PMS7003;27693;50.506;30.832;2024-03-22T04:10:09;67.60;50.70;33.40
42002;PMS7003;27693;50.506;30.832;2024-03-22T04:11:11;68.00;51.10;34.10
42002;PMS7003;27693;50.506;30.832;2024-03-22T04:12:13;61.10;46.60;30.10
42002;PMS7003;27693;50.506;30.832;2024-03-22T04:13:16;57.00;46.40;32.00
42002;PMS7003;27693;50.506;30.832;2024-03-22T04:14:18;59.30;46.60;31.20
42002;PMS7003;27693;50.506;30.832;2024-03-22T04:15:20;61.20;47.00;31.50
42002;PMS7003;27693;50.506;30.832;2024-03-22T04:16:23;63.60;50.50;32.50
42002;PMS7003;27693;50.506;30.832;2024-03-22T04:17:25;54.40;41.70;28.50
42002;PMS7003;27693;50.506;30.832;2024-03-22T04:18:27;65.10;49.60;32.80
42002;PMS7003;27693;50.506;30.832;2024-03-22T04:19:30;62.60;48.90;32.10
42002;PMS7003;27693;50.506;30.832;2024-03-22T04:20:32;59.50;46.50;31.40
42002;PMS7003;27693;50.506;30.832;2024-03-22T04:21:34;65.56;50.56;34.44
42002;PMS7003;27693;50.506;30.832;2024-03-22T04:22:36;78.89;63.33;41.89
42002;PMS7003;27693;50.506;30.832;2024-03-22T04:23:39;72.10;55.40;38.10
42002;PMS7003;27693;50.506;30.832;2024-03-22T04:24:41;69.56;54.67;38.00
42002;PMS7003;27693;50.506;30.832;2024-03-22T04:25:51;65.89;52.56;36.44
42002;PMS7003;27693;50.506;30.832;2024-03-22T04:26:54;71.70;52.30;35.90
42002;PMS7003;27693;50.506;30.832;2024-03-22T04:27:56;67.90;51.90;35.70
42002;PMS7003;27693;50.506;30.832;2024-03-22T04:28:58;67.60;51.00;34.50
42002;PMS7003;27693;50.506;30.832;2024-03-22T04:30:01;72.10;53.90;35.70
42002;PMS7003;27693;50.506;30.832;2024-03-22T04:31:04;66.60;50.60;34.70
42002;PMS7003;27693;50.506;30.832;2024-03-22T04:32:10;60.00;47.50;32.10
42002;PMS7003;27693;50.506;30.832;2024-03-22T04:33:13;63.30;47.50;32.60
42002;PMS7003;27693;50.506;30.832;2024-03-22T04:34:16;64.60;49.00;31.60
42002;PMS7003;27693;50.506;30.832;2024-03-22T04:35:18;64.50;49.20;32.80
42002;PMS7003;27693;50.506;30.832;2024-03-22T04:36:20;62.90;48.00;32.30
42002;PMS7003;27693;50.506;30.832;2024-03-22T04:37:23;66.70;50.70;34.00
42002;PMS7003;27693;50.506;30.832;2024-03-22T04:38:26;71.80;53.20;34.50
42002;PMS7003;27693;50.506;30.832;2024-03-22T04:39:29;69.80;53.30;34.80
42002;PMS7003;27693;50.506;30.832;2024-03-22T04:40:31;70.50;53.90;35.20
42002;PMS7003;27693;50.506;30.832;2024-03-22T04:41:34;66.40;50.30;33.50
42002;PMS7003;27693;50.506;30.832;2024-03-22T04:42:36;66.70;51.60;34.50
42002;PMS7003;27693;50.506;30.832;2024-03-22T04:43:40;67.60;51.50;34.20
42002;PMS7003;27693;50.506;30.832;2024-03-22T04:44:42;65.50;50.30;33.70
42002;PMS7003;27693;50.506;30.832;2024-03-22T04:45:45;66.90;51.50;34.20
42002;PMS7003;27693;50.506;30.832;2024-03-22T04:46:50;74.70;57.30;37.00
42002;PMS7003;27693;50.506;30.832;2024-03-22T04:47:53;75.50;57.60;38.90
42002;PMS7003;27693;50.506;30.832;2024-03-22T04:48:55;78.33;62.78;41.89
42002;PMS7003;27693;50.506;30.832;2024-03-22T04:49:57;76.33;59.67;38.33
42002;PMS7003;27693;50.506;30.832;2024-03-22T04:50:59;72.22;53.00;32.67
42002;PMS7003;27693;50.506;30.832;2024-03-22T04:52:01;78.80;63.90;41.80
42002;PMS7003;27693;50.506;30.832;2024-03-22T04:53:04;76.30;58.70;42.00
42002;PMS7003;27693;50.506;30.832;2024-03-22T04:54:07;84.20;71.70;46.80
42002;PMS7003;27693;50.506;30.832;2024-03-22T04:55:09;87.56;74.00;45.78
42002;PMS7003;27693;50.506;30.832;2024-03-22T04:56:11;103.00;85.20;54.10
42002;PMS7003;27693;50.506;30.832;2024-03-22T04:57:13;94.80;81.50;50.90
42002;PMS7003;27693;50.506;30.832;2024-03-22T04:58:16;98.10;84.60;53.20
42002;PMS7003;27693;50.506;30.832;2024-03-22T04:59:19;102.00;87.30;54.20
42002;PMS7003;27693;50.506;30.832;2024-03-22T05:00:22;81.60;63.80;42.80
42002;PMS7003;27693;50.506;30.832;2024-03-22T05:01:28;86.40;74.30;47.50
42002;PMS7003;27693;50.506;30.832;2024-03-22T05:02:30;97.00;86.10;54.80
42002;PMS7003;27693;50.506;30.832;2024-03-22T05:03:34;103.50;84.50;54.80
42002;PMS7003;27693;50.506;30.832;2024-03-22T05:04:37;105.20;86.10;55.00
42002;PMS7003;27693;50.506;30.832;2024-03-22T05:05:40;101.18;89.00;57.00
42002;PMS7003;27693;50.506;30.832;2024-03-22T05:06:43;100.40;89.30;60.70
42002;PMS7003;27693;50.506;30.832;2024-03-22T05:07:45;101.00;89.50;56.30
42002;PMS7003;27693;50.506;30.832;2024-03-22T05:08:48;87.60;74.70;46.70
42002;PMS7003;27693;50.506;30.832;2024-03-22T05:09:50;100.80;86.00;55.80
42002;PMS7003;27693;50.506;30.832;2024-03-22T05:10:54;90.60;76.70;48.30
42002;PMS7003;27693;50.506;30.832;2024-03-22T05:11:56;81.00;66.60;42.00
42002;PMS7003;27693;50.506;30.832;2024-03-22T05:12:58;82.60;71.90;46.10
42002;PMS7003;27693;50.506;30.832;2024-03-22T05:14:01;88.40;75.00;48.10
42002;PMS7003;27693;50.506;30.832;2024-03-22T05:15:04;98.30;81.60;55.90
42002;PMS7003;27693;50.506;30.832;2024-03-22T05:16:08;94.60;79.60;53.40
42002;PMS7003;27693;50.506;30.832;2024-03-22T05:17:12;80.70;76.20;50.70
42002;PMS7003;27693;50.506;30.832;2024-03-22T05:18:15;100.00;84.60;53.70
42002;PMS7003;27693;50.506;30.832;2024-03-22T05:19:17;92.78;81.67;51.56
42002;PMS7003;27693;50.506;30.832;2024-03-22T05:20:19;83.56;72.44;46.44
42002;PMS7003;27693;50.506;30.832;2024-03-22T05:21:22;88.20;82.80;53.10
42002;PMS7003;27693;50.506;30.832;2024-03-22T05:22:25;94.10;79.00;51.40
42002;PMS7003;27693;50.506;30.832;2024-03-22T05:23:27;97.90;86.00;54.80
42002;PMS7003;27693;50.506;30.832;2024-03-22T05:24:29;96.78;77.44;46.67
42002;PMS7003;27693;50.506;30.832;2024-03-22T05:25:33;102.60;87.60;55.30
42002;PMS7003;27693;50.506;30.832;2024-03-22T05:26:35;87.80;78.00;50.20
42002;PMS7003;27693;50.506;30.832;2024-03-22T05:27:40;91.70;81.40;52.30
42002;PMS7003;27693;50.506;30.832;2024-03-22T05:28:48;90.50;77.40;49.80
42002;PMS7003;27693;50.506;30.832;2024-03-22T05:29:51;91.80;74.80;48.60
42002;PMS7003;27693;50.506;30.832;2024-03-22T05:30:53;96.50;81.20;53.90
42002;PMS7003;27693;50.506;30.832;2024-03-22T05:31:55;97.00;79.80;50.70
42002;PMS7003;27693;50.506;30.832;2024-03-22T05:32:58;87.30;77.60;49.70
42002;PMS7003;27693;50.506;30.832;2024-03-22T05:34:01;85.60;78.40;51.00
42002;PMS7003;27693;50.506;30.832;2024-03-22T05:35:03;97.00;82.60;52.10
42002;PMS7003;27693;50.506;30.832;2024-03-22T05:36:07;93.90;81.60;52.40
42002;PMS7003;27693;50.506;30.832;2024-03-22T05:37:09;101.80;87.10;55.70
42002;PMS7003;27693;50.506;30.832;2024-03-22T05:38:13;102.45;85.09;56.09
42002;PMS7003;27693;50.506;30.832;2024-03-22T05:39:15;94.20;82.20;52.10
42002;PMS7003;27693;50.506;30.832;2024-03-22T05:40:18;82.40;69.50;42.70
42002;PMS7003;27693;50.506;30.832;2024-03-22T05:41:20;84.67;73.22;46.11
42002;PMS7003;27693;50.506;30.832;2024-03-22T05:42:22;96.50;79.30;52.20
42002;PMS7003;27693;50.506;30.832;2024-03-22T05:43:24;90.56;74.44;49.33
42002;PMS7003;27693;50.506;30.832;2024-03-22T05:44:27;84.40;70.90;45.60
42002;PMS7003;27693;50.506;30.832;2024-03-22T05:45:29;80.20;64.90;41.40
42002;PMS7003;27693;50.506;30.832;2024-03-22T05:46:31;77.70;62.80;41.40